sensor_id;sensor_type;location;lat;lon;timestamp;P1;durP1;ratioP1;P2;durP2;ratioP2
20454;SDS011;10386;54.314;10.022;2022-11-28T00:01:26;19.27;;;8.27;;
20454;SDS011;10386;54.314;10.022;2022-11-28T00:03:55;23.73;;;8.73;;
20454;SDS011;10386;54.314;10.022;2022-11-28T00:06:23;18.67;;;8.77;;
20454;SDS011;10386;54.314;10.022;2022-11-28T00:08:51;18.10;;;8.97;;
20454;SDS011;10386;54.314;10.022;2022-11-28T00:11:19;15.90;;;8.33;;
20454;SDS011;10386;54.314;10.022;2022-11-28T00:13:47;23.40;;;9.07;;
20454;SDS011;10386;54.314;10.022;2022-11-28T00:16:15;19.63;;;9.40;;
20454;SDS011;10386;54.314;10.022;2022-11-28T00:18:47;20.57;;;8.93;;
20454;SDS011;10386;54.314;10.022;2022-11-28T00:21:16;17.87;;;8.27;;
20454;SDS011;10386;54.314;10.022;2022-11-28T00:23:44;17.83;;;8.50;;
20454;SDS011;10386;54.314;10.022;2022-11-28T00:26:18;17.93;;;8.83;;
20454;SDS011;10386;54.314;10.022;2022-11-28T00:28:48;15.47;;;8.37;;
20454;SDS011;10386;54.314;10.022;2022-11-28T00:31:19;15.13;;;8.00;;
20454;SDS011;10386;54.314;10.022;2022-11-28T00:33:50;19.63;;;8.33;;
20454;SDS011;10386;54.314;10.022;2022-11-28T00:36:18;18.20;;;7.87;;
20454;SDS011;10386;54.314;10.022;2022-11-28T00:38:46;17.97;;;8.17;;
20454;SDS011;10386;54.314;10.022;2022-11-28T00:41:15;24.10;;;8.70;;
20454;SDS011;10386;54.314;10.022;2022-11-28T00:43:45;20.53;;;8.37;;
20454;SDS011;10386;54.314;10.022;2022-11-28T00:46:14;14.83;;;7.70;;
20454;SDS011;10386;54.314;10.022;2022-11-28T00:48:43;13.73;;;7.57;;
20454;SDS011;10386;54.314;10.022;2022-11-28T00:51:24;21.13;;;8.03;;
20454;SDS011;10386;54.314;10.022;2022-11-28T00:53:54;14.30;;;8.50;;
20454;SDS011;10386;54.314;10.022;2022-11-28T00:56:27;19.43;;;7.77;;
20454;SDS011;10386;54.314;10.022;2022-11-28T00:59:00;15.87;;;7.63;;
20454;SDS011;10386;54.314;10.022;2022-11-28T01:01:29;14.50;;;7.30;;
20454;SDS011;10386;54.314;10.022;2022-11-28T01:04:00;19.70;;;7.63;;
20454;SDS011;10386;54.314;10.022;2022-11-28T01:06:35;15.23;;;7.70;;
20454;SDS011;10386;54.314;10.022;2022-11-28T01:09:05;17.50;;;8.47;;
20454;SDS011;10386;54.314;10.022;2022-11-28T01:11:38;16.03;;;8.00;;
20454;SDS011;10386;54.314;10.022;2022-11-28T01:14:06;14.90;;;7.00;;
20454;SDS011;10386;54.314;10.022;2022-11-28T01:16:34;15.83;;;6.60;;
20454;SDS011;10386;54.314;10.022;2022-11-28T01:19:02;12.07;;;6.87;;
20454;SDS011;10386;54.314;10.022;2022-11-28T01:21:29;15.43;;;6.80;;
20454;SDS011;10386;54.314;10.022;2022-11-28T01:23:57;16.40;;;7.27;;
20454;SDS011;10386;54.314;10.022;2022-11-28T01:26:26;14.17;;;6.87;;
20454;SDS011;10386;54.314;10.022;2022-11-28T01:28:54;17.30;;;7.10;;
20454;SDS011;10386;54.314;10.022;2022-11-28T01:31:24;12.07;;;6.70;;
20454;SDS011;10386;54.314;10.022;2022-11-28T01:33:54;13.13;;;6.63;;
20454;SDS011;10386;54.314;10.022;2022-11-28T01:36:23;13.00;;;6.33;;
20454;SDS011;10386;54.314;10.022;2022-11-28T01:38:53;19.37;;;6.77;;
20454;SDS011;10386;54.314;10.022;2022-11-28T01:41:22;11.07;;;6.60;;
20454;SDS011;10386;54.314;10.022;2022-11-28T01:46:51;9.90;;;5.77;;
20454;SDS011;10386;54.314;10.022;2022-11-28T01:52:00;11.47;;;5.17;;
20454;SDS011;10386;54.314;10.022;2022-11-28T01:54:31;14.27;;;5.73;;
20454;SDS011;10386;54.314;10.022;2022-11-28T01:57:14;15.60;;;6.30;;
20454;SDS011;10386;54.314;10.022;2022-11-28T02:00:07;11.73;;;6.30;;
20454;SDS011;10386;54.314;10.022;2022-11-28T02:02:47;10.63;;;5.90;;
20454;SDS011;10386;54.314;10.022;2022-11-28T02:05:19;10.53;;;5.83;;
20454;SDS011;10386;54.314;10.022;2022-11-28T02:07:47;12.57;;;6.50;;
20454;SDS011;10386;54.314;10.022;2022-11-28T02:10:19;10.27;;;6.00;;
20454;SDS011;10386;54.314;10.022;2022-11-28T02:13:09;11.13;;;5.87;;
20454;SDS011;10386;54.314;10.022;2022-11-28T02:22:06;13.90;;;5.77;;
20454;SDS011;10386;54.314;10.022;2022-11-28T02:27:28;10.90;;;5.63;;
20454;SDS011;10386;54.314;10.022;2022-11-28T02:48:37;10.33;;;5.33;;
20454;SDS011;10386;54.314;10.022;2022-11-28T02:51:13;12.93;;;5.77;;
20454;SDS011;10386;54.314;10.022;2022-11-28T02:53:45;14.17;;;5.93;;
20454;SDS011;10386;54.314;10.022;2022-11-28T02:56:13;15.97;;;6.23;;
20454;SDS011;10386;54.314;10.022;2022-11-28T02:58:40;11.67;;;6.03;;
20454;SDS011;10386;54.314;10.022;2022-11-28T03:01:29;10.43;;;5.97;;
20454;SDS011;10386;54.314;10.022;2022-11-28T03:12:10;14.90;;;5.70;;
20454;SDS011;10386;54.314;10.022;2022-11-28T03:15:03;13.07;;;6.90;;
20454;SDS011;10386;54.314;10.022;2022-11-28T03:17:36;12.53;;;5.60;;
20454;SDS011;10386;54.314;10.022;2022-11-28T03:30:54;10.20;;;5.63;;
20454;SDS011;10386;54.314;10.022;2022-11-28T03:33:26;11.77;;;5.57;;
20454;SDS011;10386;54.314;10.022;2022-11-28T03:36:16;14.20;;;6.10;;
20454;SDS011;10386;54.314;10.022;2022-11-28T03:38:48;11.00;;;5.77;;
20454;SDS011;10386;54.314;10.022;2022-11-28T03:41:21;10.53;;;5.70;;
20454;SDS011;10386;54.314;10.022;2022-11-28T03:43:53;11.83;;;6.20;;
20454;SDS011;10386;54.314;10.022;2022-11-28T03:46:24;13.47;;;5.83;;
20454;SDS011;10386;54.314;10.022;2022-11-28T03:48:59;14.03;;;5.83;;
20454;SDS011;10386;54.314;10.022;2022-11-28T03:51:38;11.30;;;5.90;;
20454;SDS011;10386;54.314;10.022;2022-11-28T03:56:59;10.80;;;5.73;;
20454;SDS011;10386;54.314;10.022;2022-11-28T04:13:06;13.70;;;6.27;;
20454;SDS011;10386;54.314;10.022;2022-11-28T04:16:05;10.23;;;5.57;;
20454;SDS011;10386;54.314;10.022;2022-11-28T04:21:29;13.93;;;5.80;;
20454;SDS011;10386;54.314;10.022;2022-11-28T04:24:09;11.33;;;5.57;;
20454;SDS011;10386;54.314;10.022;2022-11-28T04:26:41;9.77;;;5.43;;
20454;SDS011;10386;54.314;10.022;2022-11-28T04:29:14;10.20;;;5.70;;
20454;SDS011;10386;54.314;10.022;2022-11-28T04:31:44;12.50;;;5.37;;
20454;SDS011;10386;54.314;10.022;2022-11-28T04:34:15;10.77;;;6.53;;
20454;SDS011;10386;54.314;10.022;2022-11-28T04:36:45;11.93;;;5.87;;
20454;SDS011;10386;54.314;10.022;2022-11-28T04:39:16;11.87;;;6.63;;
20454;SDS011;10386;54.314;10.022;2022-11-28T04:44:25;12.40;;;5.87;;
20454;SDS011;10386;54.314;10.022;2022-11-28T04:46:58;14.50;;;5.97;;
20454;SDS011;10386;54.314;10.022;2022-11-28T04:49:25;11.33;;;5.83;;
20454;SDS011;10386;54.314;10.022;2022-11-28T04:52:01;13.00;;;5.80;;
20454;SDS011;10386;54.314;10.022;2022-11-28T04:59:44;11.43;;;5.40;;
20454;SDS011;10386;54.314;10.022;2022-11-28T05:02:13;11.93;;;6.37;;
20454;SDS011;10386;54.314;10.022;2022-11-28T05:04:42;13.80;;;6.77;;
20454;SDS011;10386;54.314;10.022;2022-11-28T05:07:10;13.63;;;6.43;;
20454;SDS011;10386;54.314;10.022;2022-11-28T05:09:37;10.93;;;6.23;;
20454;SDS011;10386;54.314;10.022;2022-11-28T05:12:05;13.30;;;5.97;;
20454;SDS011;10386;54.314;10.022;2022-11-28T05:14:32;12.70;;;6.00;;
20454;SDS011;10386;54.314;10.022;2022-11-28T05:16:58;10.57;;;5.70;;
20454;SDS011;10386;54.314;10.022;2022-11-28T05:19:25;11.93;;;6.43;;
20454;SDS011;10386;54.314;10.022;2022-11-28T05:21:52;9.80;;;5.97;;
20454;SDS011;10386;54.314;10.022;2022-11-28T05:24:19;12.53;;;6.87;;
20454;SDS011;10386;54.314;10.022;2022-11-28T05:26:48;11.70;;;6.47;;
20454;SDS011;10386;54.314;10.022;2022-11-28T05:29:14;12.23;;;5.83;;
20454;SDS011;10386;54.314;10.022;2022-11-28T05:31:42;13.13;;;6.87;;
20454;SDS011;10386;54.314;10.022;2022-11-28T05:34:09;11.77;;;6.20;;
20454;SDS011;10386;54.314;10.022;2022-11-28T05:36:36;14.20;;;6.57;;
20454;SDS011;10386;54.314;10.022;2022-11-28T05:39:03;9.70;;;5.83;;
20454;SDS011;10386;54.314;10.022;2022-11-28T05:41:30;12.30;;;5.80;;
20454;SDS011;10386;54.314;10.022;2022-11-28T05:43:58;14.73;;;6.67;;
20454;SDS011;10386;54.314;10.022;2022-11-28T05:46:25;11.67;;;5.97;;
20454;SDS011;10386;54.314;10.022;2022-11-28T05:48:53;12.20;;;6.07;;
20454;SDS011;10386;54.314;10.022;2022-11-28T05:51:20;12.93;;;6.50;;
20454;SDS011;10386;54.314;10.022;2022-11-28T05:53:47;11.53;;;6.03;;
20454;SDS011;10386;54.314;10.022;2022-11-28T05:56:15;16.80;;;6.50;;
20454;SDS011;10386;54.314;10.022;2022-11-28T05:58:43;12.70;;;5.90;;
20454;SDS011;10386;54.314;10.022;2022-11-28T06:01:11;13.03;;;6.53;;
20454;SDS011;10386;54.314;10.022;2022-11-28T06:03:45;13.10;;;6.23;;
20454;SDS011;10386;54.314;10.022;2022-11-28T06:06:17;13.93;;;6.90;;
20454;SDS011;10386;54.314;10.022;2022-11-28T06:08:47;12.77;;;7.13;;
20454;SDS011;10386;54.314;10.022;2022-11-28T06:11:17;10.37;;;6.40;;
20454;SDS011;10386;54.314;10.022;2022-11-28T06:13:46;13.00;;;6.70;;
20454;SDS011;10386;54.314;10.022;2022-11-28T06:16:18;18.97;;;7.33;;
20454;SDS011;10386;54.314;10.022;2022-11-28T06:18:47;16.87;;;6.33;;
20454;SDS011;10386;54.314;10.022;2022-11-28T06:21:18;15.27;;;7.30;;
20454;SDS011;10386;54.314;10.022;2022-11-28T06:23:45;12.97;;;6.57;;
20454;SDS011;10386;54.314;10.022;2022-11-28T06:26:13;12.40;;;6.93;;
20454;SDS011;10386;54.314;10.022;2022-11-28T06:28:42;12.53;;;6.73;;
20454;SDS011;10386;54.314;10.022;2022-11-28T06:31:11;14.20;;;7.17;;
20454;SDS011;10386;54.314;10.022;2022-11-28T06:33:42;13.77;;;6.67;;
20454;SDS011;10386;54.314;10.022;2022-11-28T06:36:12;13.10;;;6.53;;
20454;SDS011;10386;54.314;10.022;2022-11-28T06:38:40;18.60;;;7.53;;
20454;SDS011;10386;54.314;10.022;2022-11-28T06:41:08;15.40;;;7.60;;
20454;SDS011;10386;54.314;10.022;2022-11-28T06:43:38;13.47;;;6.77;;
20454;SDS011;10386;54.314;10.022;2022-11-28T06:46:13;13.67;;;7.20;;
20454;SDS011;10386;54.314;10.022;2022-11-28T06:48:42;13.23;;;6.50;;
20454;SDS011;10386;54.314;10.022;2022-11-28T06:51:10;13.73;;;6.77;;
20454;SDS011;10386;54.314;10.022;2022-11-28T06:53:37;14.03;;;7.40;;
20454;SDS011;10386;54.314;10.022;2022-11-28T06:56:09;16.17;;;7.80;;
20454;SDS011;10386;54.314;10.022;2022-11-28T06:58:40;13.83;;;7.30;;
20454;SDS011;10386;54.314;10.022;2022-11-28T07:01:08;14.80;;;7.30;;
20454;SDS011;10386;54.314;10.022;2022-11-28T07:03:43;21.53;;;7.93;;
20454;SDS011;10386;54.314;10.022;2022-11-28T07:06:11;13.73;;;7.33;;
20454;SDS011;10386;54.314;10.022;2022-11-28T07:08:40;16.77;;;7.97;;
20454;SDS011;10386;54.314;10.022;2022-11-28T07:11:15;18.87;;;7.70;;
20454;SDS011;10386;54.314;10.022;2022-11-28T07:13:46;16.83;;;8.03;;
20454;SDS011;10386;54.314;10.022;2022-11-28T07:16:16;15.53;;;7.93;;
20454;SDS011;10386;54.314;10.022;2022-11-28T07:18:46;18.47;;;8.00;;
20454;SDS011;10386;54.314;10.022;2022-11-28T07:21:14;18.27;;;8.30;;
20454;SDS011;10386;54.314;10.022;2022-11-28T07:23:41;15.63;;;8.47;;
20454;SDS011;10386;54.314;10.022;2022-11-28T07:26:10;14.40;;;7.23;;
20454;SDS011;10386;54.314;10.022;2022-11-28T07:28:38;17.63;;;8.03;;
20454;SDS011;10386;54.314;10.022;2022-11-28T07:31:07;13.23;;;7.23;;
20454;SDS011;10386;54.314;10.022;2022-11-28T07:33:36;15.80;;;8.30;;
20454;SDS011;10386;54.314;10.022;2022-11-28T07:36:05;24.77;;;8.87;;
20454;SDS011;10386;54.314;10.022;2022-11-28T07:38:36;18.63;;;8.03;;
20454;SDS011;10386;54.314;10.022;2022-11-28T07:41:07;20.47;;;9.20;;
20454;SDS011;10386;54.314;10.022;2022-11-28T07:43:37;18.40;;;8.80;;
20454;SDS011;10386;54.314;10.022;2022-11-28T07:46:06;19.23;;;8.90;;
20454;SDS011;10386;54.314;10.022;2022-11-28T07:48:34;20.03;;;9.80;;
20454;SDS011;10386;54.314;10.022;2022-11-28T07:51:06;18.10;;;8.80;;
20454;SDS011;10386;54.314;10.022;2022-11-28T07:53:35;15.27;;;8.63;;
20454;SDS011;10386;54.314;10.022;2022-11-28T07:56:03;17.80;;;9.20;;
20454;SDS011;10386;54.314;10.022;2022-11-28T07:58:32;15.73;;;8.17;;
20454;SDS011;10386;54.314;10.022;2022-11-28T08:01:11;16.07;;;8.13;;
20454;SDS011;10386;54.314;10.022;2022-11-28T08:03:41;17.43;;;8.90;;
20454;SDS011;10386;54.314;10.022;2022-11-28T08:06:10;16.97;;;8.83;;
20454;SDS011;10386;54.314;10.022;2022-11-28T08:08:38;15.50;;;8.70;;
20454;SDS011;10386;54.314;10.022;2022-11-28T08:11:06;20.13;;;9.00;;
20454;SDS011;10386;54.314;10.022;2022-11-28T08:13:35;17.80;;;8.83;;
20454;SDS011;10386;54.314;10.022;2022-11-28T08:16:07;18.23;;;8.97;;
20454;SDS011;10386;54.314;10.022;2022-11-28T08:18:38;19.43;;;8.47;;
20454;SDS011;10386;54.314;10.022;2022-11-28T08:21:07;20.70;;;8.50;;
20454;SDS011;10386;54.314;10.022;2022-11-28T08:23:36;18.80;;;8.40;;
20454;SDS011;10386;54.314;10.022;2022-11-28T08:26:06;20.07;;;8.97;;
20454;SDS011;10386;54.314;10.022;2022-11-28T08:28:36;20.93;;;9.77;;
20454;SDS011;10386;54.314;10.022;2022-11-28T08:31:24;17.40;;;9.00;;
20454;SDS011;10386;54.314;10.022;2022-11-28T08:33:57;23.00;;;8.97;;
20454;SDS011;10386;54.314;10.022;2022-11-28T08:36:26;20.87;;;9.57;;
20454;SDS011;10386;54.314;10.022;2022-11-28T08:38:55;28.53;;;14.43;;
20454;SDS011;10386;54.314;10.022;2022-11-28T08:41:45;20.33;;;8.97;;
20454;SDS011;10386;54.314;10.022;2022-11-28T08:44:12;19.87;;;9.33;;
20454;SDS011;10386;54.314;10.022;2022-11-28T08:46:40;19.27;;;9.63;;
20454;SDS011;10386;54.314;10.022;2022-11-28T08:49:07;18.87;;;10.70;;
20454;SDS011;10386;54.314;10.022;2022-11-28T08:51:35;19.87;;;9.93;;
20454;SDS011;10386;54.314;10.022;2022-11-28T08:54:02;21.07;;;11.97;;
20454;SDS011;10386;54.314;10.022;2022-11-28T08:56:30;21.03;;;9.97;;
20454;SDS011;10386;54.314;10.022;2022-11-28T08:58:57;18.70;;;9.60;;
20454;SDS011;10386;54.314;10.022;2022-11-28T09:01:26;23.57;;;10.43;;
20454;SDS011;10386;54.314;10.022;2022-11-28T09:03:54;18.30;;;8.90;;
20454;SDS011;10386;54.314;10.022;2022-11-28T09:06:22;19.67;;;8.77;;
20454;SDS011;10386;54.314;10.022;2022-11-28T09:08:50;17.00;;;9.03;;
20454;SDS011;10386;54.314;10.022;2022-11-28T09:11:18;19.23;;;9.00;;
20454;SDS011;10386;54.314;10.022;2022-11-28T09:13:47;17.50;;;8.57;;
20454;SDS011;10386;54.314;10.022;2022-11-28T09:16:15;15.83;;;8.33;;
20454;SDS011;10386;54.314;10.022;2022-11-28T09:18:44;14.00;;;7.83;;
20454;SDS011;10386;54.314;10.022;2022-11-28T09:21:12;19.63;;;9.27;;
20454;SDS011;10386;54.314;10.022;2022-11-28T09:23:42;22.70;;;8.90;;
20454;SDS011;10386;54.314;10.022;2022-11-28T09:26:11;18.40;;;8.33;;
20454;SDS011;10386;54.314;10.022;2022-11-28T09:28:53;15.00;;;7.57;;
20454;SDS011;10386;54.314;10.022;2022-11-28T09:31:20;15.03;;;7.60;;
20454;SDS011;10386;54.314;10.022;2022-11-28T09:33:48;18.13;;;8.20;;
20454;SDS011;10386;54.314;10.022;2022-11-28T09:36:17;19.20;;;8.03;;
20454;SDS011;10386;54.314;10.022;2022-11-28T09:38:46;20.27;;;9.77;;
20454;SDS011;10386;54.314;10.022;2022-11-28T09:43:47;21.70;;;8.70;;
20454;SDS011;10386;54.314;10.022;2022-11-28T09:46:24;20.90;;;9.07;;
20454;SDS011;10386;54.314;10.022;2022-11-28T09:48:56;20.17;;;8.07;;
20454;SDS011;10386;54.314;10.022;2022-11-28T09:51:44;16.77;;;8.90;;
20454;SDS011;10386;54.314;10.022;2022-11-28T09:54:26;18.10;;;9.33;;
20454;SDS011;10386;54.314;10.022;2022-11-28T09:57:30;16.00;;;8.77;;
20454;SDS011;10386;54.314;10.022;2022-11-28T09:59:59;15.97;;;7.67;;
20454;SDS011;10386;54.314;10.022;2022-11-28T10:05:13;17.23;;;8.63;;
20454;SDS011;10386;54.314;10.022;2022-11-28T10:11:27;13.33;;;7.83;;
20454;SDS011;10386;54.314;10.022;2022-11-28T10:17:03;18.63;;;8.10;;
20454;SDS011;10386;54.314;10.022;2022-11-28T10:19:52;17.43;;;8.67;;
20454;SDS011;10386;54.314;10.022;2022-11-28T10:22:23;20.40;;;8.70;;
20454;SDS011;10386;54.314;10.022;2022-11-28T10:27:48;16.47;;;8.33;;
20454;SDS011;10386;54.314;10.022;2022-11-28T10:30:26;15.03;;;8.23;;
20454;SDS011;10386;54.314;10.022;2022-11-28T10:35:43;16.50;;;7.73;;
20454;SDS011;10386;54.314;10.022;2022-11-28T10:38:14;14.97;;;7.90;;
20454;SDS011;10386;54.314;10.022;2022-11-28T10:40:48;18.10;;;8.30;;
20454;SDS011;10386;54.314;10.022;2022-11-28T10:45:55;19.87;;;8.53;;
20454;SDS011;10386;54.314;10.022;2022-11-28T10:48:37;17.47;;;8.00;;
20454;SDS011;10386;54.314;10.022;2022-11-28T10:51:17;15.40;;;8.33;;
20454;SDS011;10386;54.314;10.022;2022-11-28T11:00:25;15.73;;;7.63;;
20454;SDS011;10386;54.314;10.022;2022-11-28T11:02:53;16.33;;;7.67;;
20454;SDS011;10386;54.314;10.022;2022-11-28T11:05:26;16.17;;;8.00;;
20454;SDS011;10386;54.314;10.022;2022-11-28T11:08:02;15.87;;;8.03;;
20454;SDS011;10386;54.314;10.022;2022-11-28T11:10:40;19.80;;;9.37;;
20454;SDS011;10386;54.314;10.022;2022-11-28T11:13:19;16.07;;;7.40;;
20454;SDS011;10386;54.314;10.022;2022-11-28T11:15:58;16.13;;;7.53;;
20454;SDS011;10386;54.314;10.022;2022-11-28T11:23:49;16.03;;;7.83;;
20454;SDS011;10386;54.314;10.022;2022-11-28T11:26:38;18.07;;;7.70;;
20454;SDS011;10386;54.314;10.022;2022-11-28T11:31:54;18.53;;;7.97;;
20454;SDS011;10386;54.314;10.022;2022-11-28T11:34:23;16.77;;;8.10;;
20454;SDS011;10386;54.314;10.022;2022-11-28T11:36:53;17.77;;;8.40;;
20454;SDS011;10386;54.314;10.022;2022-11-28T11:39:57;14.77;;;7.40;;
20454;SDS011;10386;54.314;10.022;2022-11-28T11:42:26;17.20;;;7.60;;
20454;SDS011;10386;54.314;10.022;2022-11-28T11:44:55;17.13;;;8.43;;
20454;SDS011;10386;54.314;10.022;2022-11-28T11:47:43;20.43;;;10.10;;
20454;SDS011;10386;54.314;10.022;2022-11-28T11:50:15;20.67;;;11.93;;
20454;SDS011;10386;54.314;10.022;2022-11-28T11:52:59;20.83;;;9.83;;
20454;SDS011;10386;54.314;10.022;2022-11-28T11:55:30;15.73;;;8.47;;
20454;SDS011;10386;54.314;10.022;2022-11-28T11:57:59;20.00;;;9.67;;
20454;SDS011;10386;54.314;10.022;2022-11-28T12:00:33;14.07;;;8.03;;
20454;SDS011;10386;54.314;10.022;2022-11-28T12:05:57;13.77;;;7.70;;
20454;SDS011;10386;54.314;10.022;2022-11-28T12:08:53;16.07;;;8.47;;
20454;SDS011;10386;54.314;10.022;2022-11-28T12:11:34;15.97;;;7.30;;
20454;SDS011;10386;54.314;10.022;2022-11-28T12:14:22;19.27;;;8.47;;
20454;SDS011;10386;54.314;10.022;2022-11-28T12:26:04;16.60;;;8.30;;
20454;SDS011;10386;54.314;10.022;2022-11-28T12:36:59;15.60;;;7.93;;
20454;SDS011;10386;54.314;10.022;2022-11-28T12:39:48;19.47;;;9.57;;
20454;SDS011;10386;54.314;10.022;2022-11-28T12:51:10;16.10;;;8.03;;
20454;SDS011;10386;54.314;10.022;2022-11-28T12:54:54;19.33;;;9.90;;
20454;SDS011;10386;54.314;10.022;2022-11-28T12:57:44;17.33;;;8.63;;
20454;SDS011;10386;54.314;10.022;2022-11-28T12:59:54;17.17;;;8.53;;
20454;SDS011;10386;54.314;10.022;2022-11-28T13:02:37;21.20;;;8.47;;
20454;SDS011;10386;54.314;10.022;2022-11-28T13:05:20;18.93;;;8.73;;
20454;SDS011;10386;54.314;10.022;2022-11-28T13:16:24;20.30;;;9.27;;
20454;SDS011;10386;54.314;10.022;2022-11-28T13:21:25;18.70;;;8.80;;
20454;SDS011;10386;54.314;10.022;2022-11-28T13:24:23;17.23;;;8.33;;
20454;SDS011;10386;54.314;10.022;2022-11-28T13:32:39;20.70;;;9.50;;
20454;SDS011;10386;54.314;10.022;2022-11-28T13:35:21;21.47;;;9.00;;
20454;SDS011;10386;54.314;10.022;2022-11-28T13:40:54;23.10;;;9.13;;
20454;SDS011;10386;54.314;10.022;2022-11-28T13:46:07;22.50;;;9.83;;
20454;SDS011;10386;54.314;10.022;2022-11-28T13:51:22;23.93;;;9.40;;
20454;SDS011;10386;54.314;10.022;2022-11-28T13:57:05;19.83;;;8.90;;
20454;SDS011;10386;54.314;10.022;2022-11-28T13:59:49;17.10;;;9.73;;
20454;SDS011;10386;54.314;10.022;2022-11-28T14:08:55;32.40;;;12.17;;
20454;SDS011;10386;54.314;10.022;2022-11-28T14:19:22;24.53;;;9.97;;
20454;SDS011;10386;54.314;10.022;2022-11-28T14:27:26;23.17;;;10.60;;
20454;SDS011;10386;54.314;10.022;2022-11-28T14:29:57;25.00;;;10.57;;
20454;SDS011;10386;54.314;10.022;2022-11-28T14:32:39;19.63;;;10.77;;
20454;SDS011;10386;54.314;10.022;2022-11-28T14:35:16;25.57;;;11.90;;
20454;SDS011;10386;54.314;10.022;2022-11-28T14:46:14;23.57;;;10.80;;
20454;SDS011;10386;54.314;10.022;2022-11-28T14:54:35;32.10;;;13.80;;
20454;SDS011;10386;54.314;10.022;2022-11-28T14:57:18;24.73;;;10.90;;
20454;SDS011;10386;54.314;10.022;2022-11-28T14:59:49;29.20;;;11.77;;
20454;SDS011;10386;54.314;10.022;2022-11-28T15:02:35;25.07;;;10.00;;
20454;SDS011;10386;54.314;10.022;2022-11-28T15:11:00;21.20;;;10.67;;
20454;SDS011;10386;54.314;10.022;2022-11-28T15:16:49;27.93;;;11.23;;
20454;SDS011;10386;54.314;10.022;2022-11-28T15:21:46;26.50;;;11.70;;
20454;SDS011;10386;54.314;10.022;2022-11-28T15:24:26;28.30;;;11.67;;
20454;SDS011;10386;54.314;10.022;2022-11-28T15:26:54;33.03;;;13.20;;
20454;SDS011;10386;54.314;10.022;2022-11-28T15:29:24;25.37;;;11.17;;
20454;SDS011;10386;54.314;10.022;2022-11-28T15:31:55;22.63;;;11.20;;
20454;SDS011;10386;54.314;10.022;2022-11-28T15:34:24;22.77;;;9.70;;
20454;SDS011;10386;54.314;10.022;2022-11-28T15:36:54;27.83;;;10.07;;
20454;SDS011;10386;54.314;10.022;2022-11-28T15:39:27;28.53;;;10.37;;
20454;SDS011;10386;54.314;10.022;2022-11-28T15:42:02;28.80;;;11.40;;
20454;SDS011;10386;54.314;10.022;2022-11-28T15:44:31;22.20;;;11.00;;
20454;SDS011;10386;54.314;10.022;2022-11-28T15:46:58;22.73;;;11.17;;
20454;SDS011;10386;54.314;10.022;2022-11-28T15:51:58;28.77;;;12.47;;
20454;SDS011;10386;54.314;10.022;2022-11-28T15:56:57;27.47;;;13.07;;
20454;SDS011;10386;54.314;10.022;2022-11-28T15:59:25;28.33;;;12.67;;
20454;SDS011;10386;54.314;10.022;2022-11-28T16:01:53;23.37;;;11.07;;
20454;SDS011;10386;54.314;10.022;2022-11-28T16:04:25;25.40;;;11.80;;
20454;SDS011;10386;54.314;10.022;2022-11-28T16:06:54;30.27;;;12.57;;
20454;SDS011;10386;54.314;10.022;2022-11-28T16:09:25;24.83;;;11.73;;
20454;SDS011;10386;54.314;10.022;2022-11-28T16:11:54;26.70;;;11.67;;
20454;SDS011;10386;54.314;10.022;2022-11-28T16:17:02;26.50;;;11.77;;
20454;SDS011;10386;54.314;10.022;2022-11-28T16:19:37;24.87;;;11.70;;
20454;SDS011;10386;54.314;10.022;2022-11-28T16:22:06;29.47;;;13.23;;
20454;SDS011;10386;54.314;10.022;2022-11-28T16:24:47;28.77;;;12.53;;
20454;SDS011;10386;54.314;10.022;2022-11-28T16:29:53;29.80;;;12.97;;
20454;SDS011;10386;54.314;10.022;2022-11-28T16:32:21;34.03;;;13.00;;
20454;SDS011;10386;54.314;10.022;2022-11-28T16:34:57;28.03;;;12.83;;
20454;SDS011;10386;54.314;10.022;2022-11-28T16:37:28;32.47;;;12.73;;
20454;SDS011;10386;54.314;10.022;2022-11-28T16:40:12;27.37;;;12.67;;
20454;SDS011;10386;54.314;10.022;2022-11-28T16:42:39;24.33;;;12.43;;
20454;SDS011;10386;54.314;10.022;2022-11-28T16:45:08;30.67;;;12.90;;
20454;SDS011;10386;54.314;10.022;2022-11-28T16:47:37;31.50;;;14.37;;
20454;SDS011;10386;54.314;10.022;2022-11-28T16:52:48;32.13;;;13.77;;
20454;SDS011;10386;54.314;10.022;2022-11-28T17:00:39;34.80;;;14.50;;
20454;SDS011;10386;54.314;10.022;2022-11-28T17:09:01;34.63;;;14.17;;
20454;SDS011;10386;54.314;10.022;2022-11-28T17:11:35;32.27;;;15.03;;
20454;SDS011;10386;54.314;10.022;2022-11-28T17:14:04;41.73;;;16.43;;
20454;SDS011;10386;54.314;10.022;2022-11-28T17:16:39;36.80;;;15.77;;
20454;SDS011;10386;54.314;10.022;2022-11-28T17:19:07;40.40;;;15.30;;
20454;SDS011;10386;54.314;10.022;2022-11-28T17:21:37;38.00;;;14.90;;
20454;SDS011;10386;54.314;10.022;2022-11-28T17:24:15;34.60;;;14.87;;
20454;SDS011;10386;54.314;10.022;2022-11-28T17:26:45;37.00;;;16.27;;
20454;SDS011;10386;54.314;10.022;2022-11-28T17:29:13;36.40;;;15.87;;
20454;SDS011;10386;54.314;10.022;2022-11-28T17:31:42;34.73;;;16.17;;
20454;SDS011;10386;54.314;10.022;2022-11-28T17:34:20;37.90;;;16.30;;
20454;SDS011;10386;54.314;10.022;2022-11-28T17:36:49;37.87;;;15.63;;
20454;SDS011;10386;54.314;10.022;2022-11-28T17:39:17;39.13;;;17.07;;
20454;SDS011;10386;54.314;10.022;2022-11-28T17:41:46;43.87;;;16.70;;
20454;SDS011;10386;54.314;10.022;2022-11-28T17:44:18;40.63;;;17.43;;
20454;SDS011;10386;54.314;10.022;2022-11-28T17:47:11;47.30;;;17.23;;
20454;SDS011;10386;54.314;10.022;2022-11-28T17:49:43;40.90;;;17.77;;
20454;SDS011;10386;54.314;10.022;2022-11-28T17:55:19;47.77;;;20.57;;
20454;SDS011;10386;54.314;10.022;2022-11-28T17:57:48;44.60;;;17.90;;
20454;SDS011;10386;54.314;10.022;2022-11-28T18:00:28;41.23;;;18.47;;
20454;SDS011;10386;54.314;10.022;2022-11-28T18:03:01;41.97;;;18.83;;
20454;SDS011;10386;54.314;10.022;2022-11-28T18:05:31;43.50;;;19.30;;
20454;SDS011;10386;54.314;10.022;2022-11-28T18:08:04;45.83;;;18.67;;
20454;SDS011;10386;54.314;10.022;2022-11-28T18:10:34;49.10;;;20.03;;
20454;SDS011;10386;54.314;10.022;2022-11-28T18:13:07;42.77;;;18.87;;
20454;SDS011;10386;54.314;10.022;2022-11-28T18:15:42;48.43;;;20.43;;
20454;SDS011;10386;54.314;10.022;2022-11-28T18:18:12;47.13;;;21.13;;
20454;SDS011;10386;54.314;10.022;2022-11-28T18:20:40;52.30;;;22.17;;
20454;SDS011;10386;54.314;10.022;2022-11-28T18:23:11;55.13;;;27.00;;
20454;SDS011;10386;54.314;10.022;2022-11-28T18:25:40;51.77;;;24.20;;
20454;SDS011;10386;54.314;10.022;2022-11-28T18:28:35;39.80;;;20.10;;
20454;SDS011;10386;54.314;10.022;2022-11-28T18:31:25;49.43;;;22.93;;
20454;SDS011;10386;54.314;10.022;2022-11-28T18:33:58;44.97;;;20.47;;
20454;SDS011;10386;54.314;10.022;2022-11-28T18:36:30;49.53;;;20.67;;
20454;SDS011;10386;54.314;10.022;2022-11-28T18:39:05;59.80;;;24.37;;
20454;SDS011;10386;54.314;10.022;2022-11-28T18:41:35;46.07;;;21.53;;
20454;SDS011;10386;54.314;10.022;2022-11-28T18:44:03;43.20;;;20.53;;
20454;SDS011;10386;54.314;10.022;2022-11-28T18:46:31;49.13;;;19.37;;
20454;SDS011;10386;54.314;10.022;2022-11-28T18:49:00;49.07;;;20.10;;
20454;SDS011;10386;54.314;10.022;2022-11-28T18:51:33;47.17;;;19.87;;
20454;SDS011;10386;54.314;10.022;2022-11-28T18:54:02;49.30;;;21.17;;